Time;durP1;ratioP1;P1;durP2;ratioP2;P2;SDS_P1;SDS_P2;PMS_P1;PMS_P2;Temp;Humidity;BMP_temperature;BMP_pressure;BME280_temperature;BME280_humidity;BME280_pressure;Samples;Min_cycle;Max_cycle;Signal;HPM_P1;HPM_P2
2022/04/20 00:00:02;;;;;;;2.92;2.67;;;;;;;8.98;44.62;96389.47;5034374;28;20056;-77
2022/04/20 00:02:29;;;;;;;5.10;3.55;;;;;;;8.98;44.40;96392.84;5034520;28;20053;-77
2022/04/20 00:04:58;;;;;;;3.08;2.78;;;;;;;8.96;44.44;96388.81;5034436;28;20056;-77
2022/04/20 00:07:26;;;;;;;5.57;3.28;;;;;;;9.01;44.12;96387.31;5033608;28;20426;-78
2022/04/20 00:09:53;;;;;;;4.25;3.10;;;;;;;9.06;44.26;96385.00;5034449;28;20061;-77
2022/04/20 00:12:21;;;;;;;3.40;2.97;;;;;;;9.08;44.57;96390.81;5034063;28;20051;-77
2022/04/20 00:14:48;;;;;;;3.67;3.05;;;;;;;9.12;44.42;96393.06;5034094;28;20140;-77
2022/04/20 00:17:16;;;;;;;4.60;3.55;;;;;;;9.16;44.47;96389.13;5033306;28;20061;-77
2022/04/20 00:19:43;;;;;;;3.40;2.90;;;;;;;9.09;44.56;96386.41;5034095;28;20065;-77
2022/04/20 00:22:12;;;;;;;4.32;3.53;;;;;;;9.02;44.92;96388.13;5033708;28;20060;-77
2022/04/20 00:24:40;;;;;;;3.65;3.30;;;;;;;8.96;44.78;96387.03;5033751;28;20049;-77
2022/04/20 00:27:08;;;;;;;4.07;3.40;;;;;;;8.92;45.35;96391.00;5033288;28;20055;-77
2022/04/20 00:29:35;;;;;;;5.18;3.85;;;;;;;8.92;45.07;96392.75;5033746;28;20054;-78
2022/04/20 00:32:03;;;;;;;6.30;3.13;;;;;;;8.90;45.56;96392.94;5034070;28;20053;-77
2022/04/20 00:34:31;;;;;;;3.75;3.17;;;;;;;8.87;45.26;96391.50;5035902;28;20523;-77
2022/04/20 00:36:59;;;;;;;5.22;3.10;;;;;;;8.89;45.73;96398.31;5051981;28;20055;-77
2022/04/20 00:39:28;;;;;;;3.35;3.05;;;;;;;8.94;45.41;96393.38;5033454;28;20053;-77
2022/04/20 00:41:56;;;;;;;3.80;3.30;;;;;;;8.94;45.10;96389.00;5033377;28;20054;-77
2022/04/20 00:44:24;;;;;;;5.65;3.92;;;;;;;8.84;45.63;96388.44;5050914;28;20045;-77
2022/04/20 00:46:53;;;;;;;4.75;4.07;;;;;;;8.75;45.50;96381.72;5033942;28;20045;-77
2022/04/20 00:49:22;;;;;;;7.28;3.85;;;;;;;8.71;46.19;96380.44;5045800;28;20041;-77
2022/04/20 00:51:52;;;;;;;4.03;3.42;;;;;;;8.76;45.70;96380.72;5057229;28;20144;-77
2022/04/20 00:54:19;;;;;;;4.35;3.47;;;;;;;8.80;45.58;96376.78;5037775;28;20061;-77
2022/04/20 00:56:48;;;;;;;5.82;3.53;;;;;;;8.85;45.72;96382.25;5045408;28;20057;-77
2022/04/20 00:59:18;;;;;;;3.47;3.17;;;;;;;8.83;45.92;96382.44;5051968;28;20057;-77
2022/04/20 01:01:45;;;;;;;3.95;3.42;;;;;;;8.82;45.54;96380.81;5053005;28;20512;-78
2022/04/20 01:04:13;;;;;;;7.25;4.60;;;;;;;8.86;45.78;96378.69;5052711;28;20127;-78
2022/04/20 01:06:41;;;;;;;3.90;3.50;;;;;;;8.90;45.76;96374.75;5040320;28;20418;-77
2022/04/20 01:09:09;;;;;;;4.65;3.47;;;;;;;8.90;45.44;96376.50;5033772;28;20050;-77
2022/04/20 01:11:36;;;;;;;4.10;3.65;;;;;;;8.83;45.93;96376.41;5045282;28;20053;-77
2022/04/20 01:14:06;;;;;;;4.22;3.83;;;;;;;8.74;46.12;96369.66;5042085;28;20064;-78
2022/04/20 01:16:33;;;;;;;5.35;3.67;;;;;;;8.69;45.96;96377.19;5031680;28;20072;-77
2022/04/20 01:19:01;;;;;;;4.47;3.80;;;;;;;8.64;46.27;96375.94;5033015;28;20096;-77
2022/04/20 01:21:30;;;;;;;4.75;3.60;;;;;;;8.58;46.45;96374.03;5045106;28;20045;-77
2022/04/20 01:23:58;;;;;;;5.55;3.65;;;;;;;8.55;46.65;96373.56;5045732;28;20523;-77
2022/04/20 01:26:26;;;;;;;6.82;3.85;;;;;;;8.43;46.79;96373.97;5041964;28;20061;-77
2022/04/20 01:28:54;;;;;;;4.10;3.70;;;;;;;8.30;47.17;96371.09;5045376;28;20057;-78
2022/04/20 01:31:22;;;;;;;4.57;3.90;;;;;;;8.20;47.30;96366.16;5042517;28;20646;-77
2022/04/20 01:33:50;;;;;;;4.35;3.80;;;;;;;8.14;47.63;96371.22;5049745;28;20132;-77
2022/04/20 01:36:17;;;;;;;5.28;4.13;;;;;;;8.04;47.84;96369.63;5039791;28;20430;-77
2022/04/20 01:38:46;;;;;;;5.25;4.75;;;;;;;7.93;47.68;96371.81;5032270;28;20037;-77
2022/04/20 01:41:14;;;;;;;5.70;4.50;;;;;;;7.83;47.98;96366.84;5040881;28;20052;-78
2022/04/20 01:43:42;;;;;;;6.30;4.07;;;;;;;7.74;48.00;96366.06;5045842;28;20045;-78
2022/04/20 01:46:10;;;;;;;5.93;4.05;;;;;;;7.67;48.23;96361.72;5040295;28;20049;-77
2022/04/20 01:48:38;;;;;;;5.28;4.53;;;;;;;7.64;48.69;96365.47;5036144;28;20565;-77
2022/04/20 01:53:51;;;;;;;4.88;3.95;;;;;;;7.51;48.95;96362.59;5033698;28;20053;-78
2022/04/20 01:56:19;;;;;;;6.65;4.00;;;;;;;7.46;49.07;96362.31;5031934;28;20060;-78
2022/04/20 01:58:46;;;;;;;4.22;3.83;;;;;;;7.42;49.20;96357.44;5047905;28;20052;-78
2022/04/20 02:04:00;;;;;;;4.47;4.07;;;;;;;7.29;49.66;96357.16;5054632;28;20072;-77
2022/04/20 02:06:27;;;;;;;5.35;4.50;;;;;;;7.24;49.85;96364.63;5055226;28;20056;-77
2022/04/20 02:08:56;;;;;;;6.57;4.60;;;;;;;7.15;49.96;96360.41;5054568;28;20049;-77
2022/04/20 02:11:24;;;;;;;5.18;4.47;;;;;;;7.06;50.38;96361.41;5056578;28;20135;-77
2022/04/20 02:13:51;;;;;;;6.85;4.03;;;;;;;6.99;50.40;96362.06;5039407;28;20060;-77
2022/04/20 02:16:19;;;;;;;8.15;4.60;;;;;;;6.94;50.45;96363.56;5035342;28;20095;-77
2022/04/20 02:18:47;;;;;;;5.13;4.57;;;;;;;6.86;50.93;96361.78;5040556;28;20046;-77
2022/04/20 02:21:14;;;;;;;6.88;4.68;;;;;;;6.80;51.08;96357.28;5055190;28;20076;-77
2022/04/20 02:23:42;;;;;;;6.53;4.85;;;;;;;6.75;50.90;96360.31;5040410;28;20046;-77
2022/04/20 02:26:11;;;;;;;4.55;4.05;;;;;;;6.72;51.30;96362.44;5035214;28;20053;-77
2022/04/20 02:28:38;;;;;;;8.57;4.38;;;;;;;6.66;51.29;96356.13;5036961;28;20061;-77
2022/04/20 02:31:06;;;;;;;6.00;4.82;;;;;;;6.63;51.56;96355.66;5036108;28;20136;-77
2022/04/20 02:33:34;;;;;;;5.47;4.30;;;;;;;6.59;52.14;96358.56;5045294;28;20041;-77
2022/04/20 02:36:02;;;;;;;6.85;5.00;;;;;;;6.54;51.83;96358.25;5036805;28;20076;-77
2022/04/20 02:38:30;;;;;;;9.18;6.30;;;;;;;6.53;51.83;96356.63;5035786;28;20053;-77
2022/04/20 02:40:58;;;;;;;9.35;5.40;;;;;;;6.49;52.09;96355.31;5050260;28;20060;-77
2022/04/20 02:43:28;;;;;;;5.63;4.97;;;;;;;6.46;52.58;96365.22;5053818;28;20041;-77
2022/04/20 02:45:56;;;;;;;6.18;5.13;;;;;;;6.41;52.52;96357.94;5054515;28;20071;-77
2022/04/20 02:48:24;;;;;;;8.88;5.13;;;;;;;6.37;52.93;96372.16;5036795;28;20522;-77
2022/04/20 02:50:52;;;;;;;5.35;4.82;;;;;;;6.33;52.91;96366.50;5049103;28;20044;-77
2022/04/20 02:53:19;;;;;;;5.55;4.88;;;;;;;6.30;52.93;96364.22;5039514;28;20042;-77
2022/04/20 02:55:47;;;;;;;5.82;4.90;;;;;;;6.30;53.13;96366.81;5040331;28;20495;-77
2022/04/20 02:58:15;;;;;;;6.03;5.18;;;;;;;6.30;53.05;96366.03;5035879;28;20046;-77
2022/04/20 03:00:44;;;;;;;6.38;4.63;;;;;;;6.38;53.03;96373.78;5035704;28;20045;-77
2022/04/20 03:03:12;;;;;;;5.32;4.78;;;;;;;6.43;53.05;96365.50;5049305;28;20049;-77
2022/04/20 03:05:39;;;;;;;5.03;4.10;;;;;;;6.47;53.31;96365.06;5043502;28;20534;-77
2022/04/20 03:08:07;;;;;;;4.65;4.18;;;;;;;6.52;52.39;96367.97;5034483;28;20423;-77
2022/04/20 03:10:35;;;;;;;4.03;3.63;;;;;;;6.56;52.02;96365.88;5046379;28;20061;-77
2022/04/20 03:13:02;;;;;;;6.32;4.72;;;;;;;6.58;51.38;96366.50;5053014;28;20049;-77
2022/04/20 03:15:30;;;;;;;5.25;4.38;;;;;;;6.57;51.70;96365.69;5055053;28;20059;-77
2022/04/20 03:17:59;;;;;;;5.30;4.07;;;;;;;6.60;52.07;96364.53;5043030;28;20418;-77
2022/04/20 03:20:27;;;;;;;5.18;4.65;;;;;;;6.66;51.51;96366.50;5035934;28;20049;-77
2022/04/20 03:22:55;;;;;;;4.75;4.28;;;;;;;6.73;51.17;96361.47;5045910;28;20045;-77
2022/04/20 03:25:22;;;;;;;6.50;3.60;;;;;;;6.78;50.73;96367.78;5045617;28;20053;-77
2022/04/20 03:27:50;;;;;;;5.65;3.92;;;;;;;6.75;50.55;96364.72;5033970;28;20055;-77
2022/04/20 03:30:17;;;;;;;4.88;4.20;;;;;;;6.68;51.56;96364.56;5035737;28;20056;-77
2022/04/20 03:32:45;;;;;;;5.10;4.32;;;;;;;6.69;51.04;96375.72;5035728;28;20419;-77
2022/04/20 03:35:15;;;;;;;4.97;4.47;;;;;;;6.69;50.65;96367.94;5034801;28;20049;-78
2022/04/20 03:37:43;;;;;;;7.07;4.50;;;;;;;6.63;50.79;96366.03;5063198;28;20048;-77
2022/04/20 03:40:11;;;;;;;4.47;4.07;;;;;;;6.60;50.81;96367.97;5075217;28;20037;-77
2022/04/20 03:42:39;;;;;;;4.55;4.10;;;;;;;6.66;50.54;96365.69;5047393;28;20038;-77
2022/04/20 03:45:07;;;;;;;5.13;4.00;;;;;;;6.69;50.47;96371.38;5034887;28;20056;-78
2022/04/20 03:47:35;;;;;;;5.07;4.50;;;;;;;6.72;50.12;96370.22;5038919;28;20044;-78
2022/04/20 03:50:03;;;;;;;4.95;4.45;;;;;;;6.72;50.07;96372.81;5046544;28;20518;-77
2022/04/20 03:52:32;;;;;;;5.78;4.68;;;;;;;6.70;50.33;96372.19;5035494;28;20044;-77
2022/04/20 03:54:59;;;;;;;7.50;4.40;;;;;;;6.68;50.39;96368.94;5034596;28;20492;-77
2022/04/20 03:57:27;;;;;;;5.82;4.63;;;;;;;6.66;50.24;96378.66;5035059;28;20396;-77
2022/04/20 03:59:54;;;;;;;6.32;4.93;;;;;;;6.52;50.98;96387.91;5039894;28;20064;-77
2022/04/20 04:02:22;;;;;;;8.07;5.55;;;;;;;6.35;51.00;96381.88;5050127;28;20055;-77
2022/04/20 04:04:49;;;;;;;6.25;5.65;;;;;;;6.16;51.74;96381.19;5046036;28;20075;-77
2022/04/20 04:07:17;;;;;;;6.68;5.28;;;;;;;6.10;52.22;96387.03;5046931;28;20041;-77
2022/04/20 04:09:46;;;;;;;6.43;5.60;;;;;;;6.09;52.67;96390.56;5038794;28;20045;-77
2022/04/20 04:12:13;;;;;;;6.60;5.50;;;;;;;6.15;52.34;96389.13;5047989;28;20054;-77
2022/04/20 04:14:42;;;;;;;6.78;5.15;;;;;;;6.24;52.71;96384.78;5035565;28;20051;-77
2022/04/20 04:17:10;;;;;;;5.63;4.47;;;;;;;6.31;52.12;96380.56;5033733;28;20539;-77
2022/04/20 04:19:37;;;;;;;8.27;5.47;;;;;;;6.33;51.98;96387.22;5037428;28;20419;-77
2022/04/20 04:22:06;;;;;;;5.00;4.60;;;;;;;6.30;52.18;96389.34;5042170;28;20044;-77
2022/04/20 04:24:37;;;;;;;6.28;5.68;;;;;;;6.16;52.23;96390.75;5050985;28;20049;-77
2022/04/20 04:27:08;;;;;;;6.32;5.43;;;;;;;6.04;52.43;96395.44;5033597;28;20423;-77
2022/04/20 04:29:36;;;;;;;6.28;5.07;;;;;;;6.03;53.19;96386.03;5036401;28;20045;-77
2022/04/20 04:32:04;;;;;;;5.85;5.25;;;;;;;6.08;53.29;96394.16;5038319;28;20503;-77
2022/04/20 04:34:32;;;;;;;6.93;5.93;;;;;;;6.10;53.03;96393.97;5051430;28;20060;-77
2022/04/20 04:37:00;;;;;;;7.82;5.00;;;;;;;6.13;52.53;96383.31;5041903;28;20059;-77
2022/04/20 04:39:29;;;;;;;6.88;5.60;;;;;;;6.15;52.26;96384.75;5052809;28;20060;-77
2022/04/20 04:42:00;;;;;;;6.88;4.93;;;;;;;6.12;52.24;96389.44;5053521;28;20053;-77
2022/04/20 04:44:36;;;;;;;6.55;5.35;;;;;;;6.06;53.24;96383.13;5051709;28;20124;-77
2022/04/20 04:49:49;;;;;;;11.95;5.07;;;;;;;6.11;53.41;96386.03;5047440;28;20507;-77
2022/04/20 04:52:17;;;;;;;8.60;5.63;;;;;;;6.17;53.08;96385.41;5033143;28;20041;-77
2022/04/20 04:54:44;;;;;;;8.57;5.50;;;;;;;6.17;52.78;96388.00;5037770;28;20052;-77
2022/04/20 04:57:12;;;;;;;7.80;5.55;;;;;;;6.16;53.03;96395.94;5052189;28;20717;-77
2022/04/20 04:59:42;;;;;;;11.45;5.70;;;;;;;6.11;52.64;96388.63;5049145;28;20049;-77
2022/04/20 05:02:10;;;;;;;14.35;6.65;;;;;;;6.06;52.78;96390.09;5034166;28;20049;-77
2022/04/20 05:04:40;;;;;;;10.43;5.57;;;;;;;6.00;53.25;96390.72;5033330;28;20045;-77
2022/04/20 05:07:07;;;;;;;6.57;5.72;;;;;;;5.98;53.47;96393.47;5032420;28;20499;-77
2022/04/20 05:09:35;;;;;;;9.32;6.53;;;;;;;5.93;53.54;96390.50;5052923;28;20059;-77
2022/04/20 05:12:03;;;;;;;9.88;7.18;;;;;;;5.86;54.14;96398.09;5053076;28;20060;-77
2022/04/20 05:14:31;;;;;;;15.32;9.52;;;;;;;5.82;54.10;96401.16;5036922;28;20056;-77
2022/04/20 05:16:59;;;;;;;9.05;7.43;;;;;;;5.77;54.59;96389.50;5052109;28;20045;-77
2022/04/20 05:19:29;;;;;;;16.05;6.55;;;;;;;5.82;54.85;96393.41;5034188;28;20080;-77
2022/04/20 05:21:57;;;;;;;12.80;5.97;;;;;;;5.93;55.46;96388.72;5045572;28;20049;-77
2022/04/20 05:24:24;;;;;;;12.27;6.47;;;;;;;6.08;54.34;96393.31;5063106;28;20064;-78
2022/04/20 05:26:52;;;;;;;8.63;7.00;;;;;;;6.20;54.38;96397.22;5072723;28;20036;-78
2022/04/20 05:29:20;;;;;;;8.70;6.13;;;;;;;6.31;53.45;96390.94;5052867;28;20056;-78
2022/04/20 05:31:51;;;;;;;6.28;5.43;;;;;;;6.36;53.87;96383.50;5052364;28;20053;-77
2022/04/20 05:34:23;;;;;;;6.95;5.93;;;;;;;6.41;53.76;96383.84;5049361;28;20045;-78
2022/04/20 05:42:22;;;;;;;10.10;6.50;;;;;;;6.55;53.04;96385.78;5038660;28;20064;-76
2022/04/20 05:44:49;;;;;;;6.65;5.95;;;;;;;6.51;53.38;96384.47;5044236;28;20037;-77
2022/04/20 05:47:16;;;;;;;11.57;7.78;;;;;;;6.51;53.44;96378.47;5039194;28;20057;-77
2022/04/20 05:49:45;;;;;;;12.40;6.22;;;;;;;6.54;53.71;96396.31;5050830;28;20060;-77
2022/04/20 05:52:13;;;;;;;10.15;6.95;;;;;;;6.54;53.14;96384.16;5032760;28;20063;-76
2022/04/20 05:54:40;;;;;;;10.35;7.05;;;;;;;6.56;53.51;96382.22;5036274;28;20041;-76
2022/04/20 05:57:08;;;;;;;9.88;6.82;;;;;;;6.65;53.50;96392.56;5052342;28;20045;-77
2022/04/20 05:59:40;;;;;;;8.52;6.40;;;;;;;6.75;53.82;96393.22;5041498;28;20051;-77
2022/04/20 06:02:07;;;;;;;8.65;6.78;;;;;;;6.88;52.90;96397.91;5045718;28;20554;-76
2022/04/20 06:04:35;;;;;;;9.30;6.80;;;;;;;7.01;52.93;96393.84;5035363;28;20053;-77
2022/04/20 06:07:04;;;;;;;7.32;6.47;;;;;;;7.15;52.83;96396.75;5051915;28;20095;-77
2022/04/20 06:09:32;;;;;;;7.45;5.93;;;;;;;7.20;52.37;96389.28;5036194;28;20053;-76
2022/04/20 06:11:59;;;;;;;8.65;6.22;;;;;;;7.16;51.99;96393.19;5035453;28;20058;-76
2022/04/20 06:14:27;;;;;;;6.75;5.82;;;;;;;7.14;52.21;96390.75;5036820;28;20474;-76
2022/04/20 06:16:54;;;;;;;6.10;5.50;;;;;;;7.15;52.17;96391.56;5040111;28;20060;-77
2022/04/20 06:19:22;;;;;;;10.63;5.55;;;;;;;7.13;52.33;96383.16;5044592;28;20507;-76
2022/04/20 06:21:49;;;;;;;6.60;5.68;;;;;;;7.04;52.20;96387.53;5041749;28;20049;-77
2022/04/20 06:24:18;;;;;;;7.13;6.10;;;;;;;7.03;52.59;96398.06;5053419;28;20021;-77
2022/04/20 06:26:46;;;;;;;7.30;6.43;;;;;;;6.98;52.59;96386.41;5061001;28;20101;-76
2022/04/20 06:29:13;;;;;;;6.88;6.15;;;;;;;6.96;52.82;96388.34;5044900;28;20055;-77
2022/04/20 06:31:43;;;;;;;6.72;5.85;;;;;;;7.01;53.13;96377.47;5037277;28;20051;-77
2022/04/20 06:34:11;;;;;;;8.10;5.47;;;;;;;7.10;52.79;96378.28;5034322;28;20041;-77
2022/04/20 06:36:38;;;;;;;5.70;5.05;;;;;;;7.15;52.53;96391.56;5031570;28;20049;-77
2022/04/20 06:39:06;;;;;;;7.57;5.72;;;;;;;7.19;52.07;96388.50;5044977;28;20049;-77
2022/04/20 06:41:35;;;;;;;8.30;5.10;;;;;;;7.20;51.74;96395.28;5033133;28;20045;-77
2022/04/20 06:44:03;;;;;;;7.13;5.30;;;;;;;7.19;51.54;96391.09;5038411;28;20049;-75
2022/04/20 06:46:30;;;;;;;5.78;4.75;;;;;;;7.16;51.44;96390.59;5034154;28;20038;-76
2022/04/20 06:49:03;;;;;;;7.03;4.95;;;;;;;7.17;51.23;96389.59;5035496;28;20049;-77
2022/04/20 06:58:31;;;;;;;7.03;4.97;;;;;;;7.14;51.56;96384.75;5043098;28;20048;-77
2022/04/20 06:59:51;;;;;;;7.93;5.40;;;;;;;7.33;51.31;96374.00;5035674;28;20141;-76
2022/04/20 07:02:18;;;;;;;5.25;4.03;;;;;;;7.43;50.67;96374.63;5043731;28;20076;-76
2022/04/20 07:04:46;;;;;;;8.30;4.45;;;;;;;7.47;50.43;96369.09;5036634;28;20538;-76
2022/04/20 07:07:13;;;;;;;7.15;4.65;;;;;;;7.56;50.05;96375.88;5034804;28;20049;-76
2022/04/20 07:09:42;;;;;;;8.27;4.47;;;;;;;7.68;50.04;96371.13;5044852;28;20049;-76
2022/04/20 07:12:10;;;;;;;4.78;4.13;;;;;;;7.79;49.69;96379.34;5054421;28;20045;-76
2022/04/20 07:14:38;;;;;;;5.05;4.55;;;;;;;7.94;49.36;96376.84;5045362;28;20510;-76
2022/04/20 07:17:07;;;;;;;5.00;4.38;;;;;;;8.08;49.00;96383.09;5034806;28;20408;-76
2022/04/20 07:19:35;;;;;;;5.38;4.40;;;;;;;8.17;48.68;96376.06;5039682;28;20068;-76
2022/04/20 07:22:03;;;;;;;4.72;4.22;;;;;;;8.29;47.77;96379.06;5035968;28;20053;-77
2022/04/20 07:24:31;;;;;;;4.47;4.07;;;;;;;8.33;47.64;96383.78;5037510;28;20049;-77
2022/04/20 07:26:58;;;;;;;4.60;3.92;;;;;;;8.32;47.17;96379.53;5054158;28;20056;-77
2022/04/20 07:29:27;;;;;;;6.90;4.03;;;;;;;8.37;46.86;96379.00;5053903;28;20503;-76
2022/04/20 07:31:55;;;;;;;4.47;3.88;;;;;;;8.48;46.80;96378.63;5052916;28;20648;-78
2022/04/20 07:34:22;;;;;;;4.75;4.00;;;;;;;8.65;46.62;96389.72;5048068;28;20060;-80
2022/04/20 07:36:50;;;;;;;5.78;4.30;;;;;;;8.79;46.48;96380.34;5034245;28;20053;-76
2022/04/20 07:39:18;;;;;;;4.80;3.95;;;;;;;8.92;46.46;96380.59;5042547;28;20041;-77
2022/04/20 07:41:45;;;;;;;4.22;3.80;;;;;;;9.01;45.39;96384.72;5034564;28;20053;-76
2022/04/20 07:44:13;;;;;;;4.28;3.88;;;;;;;9.11;45.48;96378.44;5038306;28;20049;-77
2022/04/20 07:46:41;;;;;;;4.35;3.55;;;;;;;9.23;44.63;96382.25;5053892;28;20057;-77
2022/04/20 07:51:50;;;;;;;3.33;3.03;;;;;;;9.49;43.87;96381.78;5033165;28;20049;-77
2022/04/20 07:54:18;;;;;;;4.22;3.00;;;;;;;9.59;43.39;96386.72;5036825;28;20046;-77
2022/04/20 07:56:45;;;;;;;3.83;3.50;;;;;;;9.58;42.99;96385.91;5044311;28;20052;-78
2022/04/20 07:59:17;;;;;;;3.50;3.10;;;;;;;9.57;42.69;96388.69;5044819;28;20110;-77
2022/04/20 08:01:46;;;;;;;4.68;3.28;;;;;;;9.61;42.64;96384.75;5052148;28;20418;-77
2022/04/20 08:04:16;;;;;;;3.95;3.30;;;;;;;9.73;42.58;96378.09;5040315;28;20059;-78
2022/04/20 08:06:46;;;;;;;3.42;3.13;;;;;;;9.87;42.50;96392.88;5034038;28;20055;-78
2022/04/20 08:09:13;;;;;;;4.38;3.50;;;;;;;9.99;42.51;96392.41;5039019;28;20053;-78
2022/04/20 08:11:40;;;;;;;6.28;3.50;;;;;;;10.10;41.71;96384.13;5042650;28;20049;-78
2022/04/20 08:14:11;;;;;;;5.57;3.70;;;;;;;10.23;41.66;96391.28;5043356;28;20057;-78
2022/04/20 08:16:39;;;;;;;3.67;3.33;;;;;;;10.32;41.25;96392.81;5037093;28;20053;-78
2022/04/20 08:19:08;;;;;;;4.95;3.22;;;;;;;10.43;41.06;96387.13;5034253;28;20050;-79
2022/04/20 08:21:36;;;;;;;4.93;2.95;;;;;;;10.59;40.54;96393.09;5042518;28;20127;-78
2022/04/20 08:24:04;;;;;;;5.70;2.70;;;;;;;10.77;39.80;96395.25;5055526;28;20068;-77
2022/04/20 08:26:31;;;;;;;4.68;2.72;;;;;;;10.91;39.40;96384.72;5052616;28;20045;-76
2022/04/20 08:28:59;;;;;;;2.90;2.65;;;;;;;11.01;39.42;96386.19;5052242;28;20052;-77
2022/04/20 08:31:26;;;;;;;6.32;3.28;;;;;;;11.12;38.72;96386.47;5038016;28;20049;-77
2022/04/20 08:33:54;;;;;;;3.38;3.03;;;;;;;11.23;38.46;96392.97;5034649;28;20053;-77
2022/04/20 08:36:23;;;;;;;8.43;2.80;;;;;;;11.34;38.50;96389.81;5034221;28;20056;-77
2022/04/20 08:38:50;;;;;;;3.03;2.67;;;;;;;11.38;37.45;96387.66;5033786;28;20499;-78
2022/04/20 08:41:18;;;;;;;8.40;2.90;;;;;;;11.43;37.84;96395.72;5037310;28;20072;-79
2022/04/20 08:43:45;;;;;;;9.20;4.82;;;;;;;11.49;38.04;96381.88;5042758;28;20045;-77
2022/04/20 08:46:13;;;;;;;4.63;4.15;;;;;;;11.49;37.54;96392.34;5052494;28;20059;-77
2022/04/20 08:48:40;;;;;;;6.95;3.50;;;;;;;11.42;38.54;96388.09;5052938;28;20040;-77
2022/04/20 08:51:08;;;;;;;4.22;3.67;;;;;;;11.50;38.62;96391.34;5047075;28;20060;-76
2022/04/20 08:53:39;;;;;;;6.00;3.58;;;;;;;11.63;39.27;96389.78;5042814;28;20422;-78
2022/04/20 08:58:53;;;;;;;3.45;3.15;;;;;;;11.88;37.65;96382.31;5033665;28;20518;-77
2022/04/20 09:01:27;;;;;;;4.13;3.75;;;;;;;11.93;37.36;96383.31;5046689;28;20048;-78
2022/04/20 09:03:57;;;;;;;3.75;3.28;;;;;;;12.02;37.61;96385.78;5040211;28;20053;-78
2022/04/20 09:06:25;;;;;;;4.32;3.38;;;;;;;12.08;36.86;96383.19;5033911;28;20194;-78
2022/04/20 09:08:54;;;;;;;4.43;4.03;;;;;;;12.14;35.79;96392.06;5051619;28;20056;-77
2022/04/20 09:11:23;;;;;;;4.90;3.53;;;;;;;12.18;36.42;96389.84;5044087;28;20045;-77
2022/04/20 09:13:51;;;;;;;5.10;3.72;;;;;;;12.24;36.54;96386.44;5044994;28;20044;-78
2022/04/20 09:16:18;;;;;;;4.28;3.17;;;;;;;12.32;36.47;96379.22;5054722;28;20256;-77
2022/04/20 09:18:50;;;;;;;3.58;3.28;;;;;;;12.42;35.86;96388.50;5052456;28;20045;-77
2022/04/20 09:21:20;;;;;;;3.67;3.38;;;;;;;12.48;36.39;96378.03;5043986;28;20053;-78
2022/04/20 09:23:48;;;;;;;3.92;3.30;;;;;;;12.58;36.65;96372.44;5033872;28;20099;-77
2022/04/20 09:26:17;;;;;;;4.45;3.13;;;;;;;12.71;36.37;96377.69;5033014;28;20055;-78
2022/04/20 09:29:06;;;;;;;4.45;3.25;;;;;;;12.81;35.84;96376.47;5033879;28;20132;-77
2022/04/20 09:31:43;;;;;;;5.03;3.30;;;;;;;12.83;35.26;96380.50;5049465;28;20057;-78
2022/04/20 09:34:53;;;;;;;5.32;2.80;;;;;;;12.90;35.68;96375.25;5042080;28;20411;-79
2022/04/20 09:37:22;;;;;;;5.45;3.30;;;;;;;12.99;35.46;96374.88;5041087;28;20426;-77
2022/04/20 09:39:50;;;;;;;3.25;2.95;;;;;;;13.09;35.28;96369.22;5036612;28;20057;-77
2022/04/20 09:42:19;;;;;;;3.28;2.90;;;;;;;13.17;34.63;96374.25;5032406;28;20050;-78
2022/04/20 09:44:55;;;;;;;5.25;3.03;;;;;;;13.23;33.88;96379.66;5050449;28;20049;-78
2022/04/20 09:50:11;;;;;;;3.20;2.63;;;;;;;13.31;34.35;96361.94;5053113;28;20049;-78
2022/04/20 09:52:41;;;;;;;3.53;3.22;;;;;;;13.38;34.81;96361.94;5038895;28;20052;-78
2022/04/20 09:55:12;;;;;;;3.22;2.80;;;;;;;13.46;34.83;96363.53;5041512;28;20060;-79
2022/04/20 09:57:40;;;;;;;6.82;3.15;;;;;;;13.54;33.33;96347.59;5032202;28;20067;-78
2022/04/20 10:00:10;;;;;;;3.53;2.38;;;;;;;13.63;33.55;96353.44;5033084;28;20060;-78
2022/04/20 10:02:49;;;;;;;4.32;3.00;;;;;;;13.73;32.65;96353.78;5032871;28;20105;-79
2022/04/20 10:05:21;;;;;;;6.40;2.88;;;;;;;13.70;31.89;96343.72;5032829;28;20045;-79
2022/04/20 10:07:54;;;;;;;2.75;2.55;;;;;;;13.73;32.47;96343.28;5032534;28;20507;-80
2022/04/20 10:10:22;;;;;;;3.60;2.80;;;;;;;13.82;32.89;96339.44;5049396;28;20045;-78
2022/04/20 10:12:54;;;;;;;4.32;2.90;;;;;;;13.92;32.43;96333.75;5049950;28;20518;-77
2022/04/20 10:18:16;;;;;;;3.63;2.33;;;;;;;14.17;31.23;96326.75;5034753;28;20115;-78
2022/04/20 10:20:48;;;;;;;2.63;2.33;;;;;;;14.29;32.07;96329.50;5052941;28;20053;-79
2022/04/20 10:23:19;;;;;;;3.13;2.50;;;;;;;14.34;30.53;96329.69;5051743;28;20053;-79
2022/04/20 10:25:48;;;;;;;4.87;2.20;;;;;;;14.31;30.60;96326.66;5039830;28;20395;-78
2022/04/20 10:28:22;;;;;;;4.32;2.25;;;;;;;14.31;30.13;96324.03;5040186;28;20045;-79
2022/04/20 10:31:11;;;;;;;2.65;2.38;;;;;;;14.30;30.18;96315.38;5053327;28;20139;-78
2022/04/20 10:33:42;;;;;;;9.18;2.55;;;;;;;14.33;31.09;96317.56;5056865;28;20132;-80
2022/04/20 10:36:28;;;;;;;2.50;2.30;;;;;;;14.38;29.89;96311.69;5058328;28;20513;-80
2022/04/20 10:39:17;;;;;;;3.70;2.40;;;;;;;14.51;30.03;96316.03;5038096;28;20053;-79
2022/04/20 10:42:17;;;;;;;2.17;1.98;;;;;;;14.67;30.25;96310.31;5036375;28;20172;-79
2022/04/20 10:45:03;;;;;;;4.70;2.38;;;;;;;14.80;28.79;96318.06;5041391;28;20082;-79
2022/04/20 10:47:32;;;;;;;2.60;2.17;;;;;;;14.81;28.98;96318.84;5069835;28;20113;-77
2022/04/20 10:50:19;;;;;;;4.15;2.30;;;;;;;14.78;27.97;96309.59;5056298;28;20053;-77
2022/04/20 10:52:52;;;;;;;3.42;1.95;;;;;;;14.77;27.95;96315.84;5048781;28;20124;-78
2022/04/20 10:55:25;;;;;;;3.58;2.10;;;;;;;14.78;27.99;96300.88;5036297;28;20522;-80
2022/04/20 10:57:56;;;;;;;2.40;2.00;;;;;;;14.78;27.66;96306.16;5035491;28;20050;-79
2022/04/20 11:00:32;;;;;;;2.60;2.40;;;;;;;14.75;27.71;96296.88;5050619;28;20056;-78
2022/04/20 11:03:05;;;;;;;2.90;2.65;;;;;;;14.72;27.68;96294.69;5051706;28;20128;-77
2022/04/20 11:05:48;;;;;;;2.90;2.70;;;;;;;14.70;28.00;96288.84;5038919;28;20053;-78
2022/04/20 11:08:18;;;;;;;3.78;2.47;;;;;;;14.72;28.37;96289.44;5044834;28;20059;-78
2022/04/20 11:18:38;;;;;;;4.05;2.40;;;;;;;14.72;27.63;96284.19;5055768;28;20083;-79
2022/04/20 11:19:49;;;;;;;7.32;2.45;;;;;;;14.84;28.81;96263.28;5068329;28;20128;-79
2022/04/20 11:22:17;;;;;;;2.60;2.40;;;;;;;15.04;28.93;96270.94;5059277;28;20049;-80
2022/04/20 11:24:48;;;;;;;3.15;2.40;;;;;;;15.17;29.20;96270.00;5048716;28;20064;-79
2022/04/20 11:27:15;;;;;;;4.43;2.40;;;;;;;15.24;28.56;96266.31;5055172;28;20056;-79
2022/04/20 11:29:44;;;;;;;2.75;2.38;;;;;;;15.25;28.32;96272.34;5039873;28;20053;-79
2022/04/20 11:32:15;;;;;;;2.35;2.00;;;;;;;15.19;28.24;96262.72;5036061;28;20054;-78
2022/04/20 11:34:42;;;;;;;3.78;2.20;;;;;;;15.23;29.58;96259.44;5050983;28;20131;-79
2022/04/20 11:37:10;;;;;;;4.03;2.17;;;;;;;15.28;28.75;96265.84;5054190;28;20487;-78
2022/04/20 11:39:38;;;;;;;2.53;2.33;;;;;;;15.33;28.11;96258.94;5054962;28;20126;-79
2022/04/20 11:42:08;;;;;;;2.92;2.55;;;;;;;15.35;27.27;96261.31;5055320;28;20056;-79
2022/04/20 11:44:39;;;;;;;5.93;2.40;;;;;;;15.35;27.74;96242.94;5047847;28;20041;-78
2022/04/20 11:47:08;;;;;;;3.63;2.47;;;;;;;15.38;27.99;96245.13;5034737;28;20046;-79
2022/04/20 11:49:39;;;;;;;3.45;2.35;;;;;;;15.45;28.68;96245.84;5051871;28;20045;-79
2022/04/20 11:52:09;;;;;;;2.47;2.05;;;;;;;15.50;27.89;96245.97;5040587;28;20050;-79
2022/04/20 11:54:38;;;;;;;2.60;2.00;;;;;;;15.49;27.13;96244.38;5036289;28;20081;-79
2022/04/20 11:57:08;;;;;;;3.90;2.80;;;;;;;15.48;26.58;96248.06;5034194;28;20053;-79
2022/04/20 11:59:42;;;;;;;2.65;2.25;;;;;;;15.38;26.37;96239.88;5038735;28;20341;-79
2022/04/20 12:02:12;;;;;;;3.03;1.77;;;;;;;15.33;27.75;96237.13;5040019;28;20076;-77
2022/04/20 12:04:42;;;;;;;6.05;2.70;;;;;;;15.34;26.88;96234.25;5030045;28;20117;-78
2022/04/20 12:07:10;;;;;;;3.22;2.20;;;;;;;15.33;27.25;96229.22;5009288;28;20060;-78
2022/04/20 12:09:42;;;;;;;3.47;2.35;;;;;;;15.32;27.72;96232.88;5017647;28;20163;-79
2022/04/20 12:12:15;;;;;;;5.20;2.50;;;;;;;15.33;28.56;96231.84;5044557;28;20056;-78
2022/04/20 12:14:46;;;;;;;3.70;2.25;;;;;;;15.40;28.86;96227.31;5024449;28;20060;-78
2022/04/20 12:17:20;;;;;;;3.03;2.47;;;;;;;15.47;27.80;96235.13;5024542;28;20049;-78
2022/04/20 12:19:48;;;;;;;5.18;2.65;;;;;;;15.44;27.15;96229.28;5048064;28;20109;-78
2022/04/20 12:22:18;;;;;;;8.75;2.92;;;;;;;15.39;26.65;96228.31;5053667;28;20053;-78
2022/04/20 12:24:48;;;;;;;2.67;2.40;;;;;;;15.42;27.09;96225.28;5034041;28;20057;-78